createdAt,value
2018-09-29T00:00:10.881Z,12.50
2018-09-29T00:05:14.540Z,7.13
2018-09-29T00:10:18.632Z,5.27
2018-09-29T00:15:22.150Z,7.20
2018-09-29T00:20:25.800Z,6.73
2018-09-29T00:25:29.421Z,5.67
2018-09-29T00:30:32.967Z,9.63
2018-09-29T00:35:36.555Z,8.90
2018-09-29T00:40:40.254Z,15.60
2018-09-29T00:45:43.864Z,8.47
2018-09-29T00:50:47.385Z,8.17
2018-09-29T00:55:50.995Z,8.97
2018-09-29T01:00:54.581Z,11.97
2018-09-29T01:06:09.287Z,13.93
2018-09-29T01:11:12.846Z,10.90
2018-09-29T01:16:16.422Z,15.67
2018-09-29T01:21:20.200Z,10.33
2018-09-29T01:26:23.766Z,12.80
2018-09-29T01:31:27.343Z,10.00
2018-09-29T01:36:30.961Z,8.20
2018-09-29T01:41:34.652Z,9.50
2018-09-29T01:46:38.277Z,5.90
2018-09-29T01:51:41.932Z,4.77
2018-09-29T01:56:45.532Z,12.70
2018-09-29T02:01:49.299Z,17.73
2018-09-29T02:06:52.949Z,6.20
2018-09-29T02:11:56.821Z,7.10
2018-09-29T02:17:00.418Z,8.13
2018-09-29T02:22:04.074Z,7.27
2018-09-29T02:27:07.609Z,8.43
2018-09-29T02:32:11.161Z,7.33
2018-09-29T02:37:14.711Z,5.80
2018-09-29T02:42:18.329Z,7.50
2018-09-29T02:47:21.951Z,5.93
2018-09-29T02:52:25.536Z,5.00
2018-09-29T02:57:29.081Z,5.93
2018-09-29T03:02:32.617Z,9.37
2018-09-29T03:07:36.409Z,5.63
2018-09-29T03:12:44.633Z,7.40
2018-09-29T03:17:48.251Z,12.37
2018-09-29T03:22:51.854Z,11.87
2018-09-29T03:27:55.452Z,5.13
2018-09-29T03:32:59.274Z,8.27
2018-09-29T03:38:02.871Z,12.77
2018-09-29T03:43:06.555Z,11.13
2018-09-29T03:48:10.132Z,8.43
2018-09-29T03:53:13.761Z,7.40
2018-09-29T03:58:17.382Z,6.90
2018-09-29T04:03:21.010Z,8.53
2018-09-29T04:08:24.600Z,6.03
2018-09-29T04:13:28.293Z,5.63
2018-09-29T04:18:31.905Z,10.73
2018-09-29T04:23:35.462Z,10.77
2018-09-29T04:28:39.267Z,5.00
2018-09-29T04:33:42.748Z,6.07
2018-09-29T04:38:46.373Z,11.43
2018-09-29T04:43:49.943Z,10.20
2018-09-29T04:48:53.536Z,3.97
2018-09-29T04:53:57.081Z,8.23
2018-09-29T04:59:00.753Z,8.47
2018-09-29T05:04:04.431Z,4.40
2018-09-29T05:09:09.136Z,9.70
2018-09-29T05:14:12.793Z,7.50
2018-09-29T05:19:16.447Z,5.47
2018-09-29T05:24:19.983Z,5.73
2018-09-29T05:29:23.616Z,8.97
2018-09-29T05:34:27.171Z,6.43
2018-09-29T05:39:30.767Z,7.73
2018-09-29T05:44:34.455Z,6.13
2018-09-29T05:49:38.600Z,6.77
2018-09-29T05:54:42.176Z,8.03
2018-09-29T05:59:45.722Z,5.43
2018-09-29T06:04:49.263Z,6.30
2018-09-29T06:09:52.965Z,13.33
2018-09-29T06:14:56.632Z,7.03
2018-09-29T06:20:00.273Z,6.13
2018-09-29T06:25:03.864Z,15.87
2018-09-29T06:30:09.311Z,15.03
2018-09-29T06:35:13.195Z,13.57
2018-09-29T06:40:16.815Z,15.37
2018-09-29T06:45:20.474Z,21.17
2018-09-29T06:50:24.089Z,16.90
2018-09-29T06:55:27.679Z,23.77
2018-09-29T07:00:32.091Z,17.23
2018-09-29T07:05:35.730Z,19.53
2018-09-29T07:10:39.346Z,15.37
2018-09-29T07:15:42.903Z,20.07
2018-09-29T07:20:46.669Z,26.30
2018-09-29T07:25:50.224Z,16.17
2018-09-29T07:30:54.026Z,17.90
2018-09-29T07:35:57.674Z,17.13
2018-09-29T07:41:01.505Z,13.37
2018-09-29T07:46:05.187Z,15.30
2018-09-29T07:51:08.850Z,13.30
2018-09-29T07:56:12.455Z,14.80
2018-09-29T08:01:16.179Z,17.27
2018-09-29T08:06:19.898Z,13.23
2018-09-29T08:11:23.556Z,12.50
2018-09-29T08:16:27.169Z,11.37
2018-09-29T08:21:30.743Z,8.83
2018-09-29T08:26:34.290Z,16.53
2018-09-29T08:31:39.813Z,11.23
2018-09-29T08:36:43.428Z,10.07
2018-09-29T08:41:47.430Z,6.27
2018-09-29T08:46:51.096Z,17.50
2018-09-29T08:51:58.598Z,12.17
2018-09-29T08:57:02.442Z,8.27
2018-09-29T09:02:06.285Z,13.37
2018-09-29T09:07:09.845Z,8.87
2018-09-29T09:12:13.403Z,6.20
2018-09-29T09:17:17.009Z,11.40
2018-09-29T09:22:20.663Z,8.23
2018-09-29T09:27:24.323Z,11.17
2018-09-29T09:32:27.882Z,8.83
2018-09-29T09:37:31.454Z,8.10
2018-09-29T09:42:35.026Z,8.67
2018-09-29T09:47:38.791Z,8.50
2018-09-29T09:52:42.391Z,10.77
2018-09-29T09:57:46.010Z,10.23
2018-09-29T10:02:54.834Z,7.13
2018-09-29T10:07:58.419Z,9.30
2018-09-29T10:13:02.131Z,10.03
2018-09-29T10:18:06.462Z,8.07
2018-09-29T10:23:10.057Z,6.10
2018-09-29T10:28:13.666Z,7.17
2018-09-29T10:33:17.243Z,10.17
2018-09-29T10:38:23.924Z,9.37
2018-09-29T10:43:27.616Z,10.93
2018-09-29T10:48:31.142Z,8.67
2018-09-29T10:53:34.688Z,2.70
2018-09-29T10:58:38.303Z,3.70
2018-09-29T11:03:42.011Z,3.63
2018-09-29T11:08:45.695Z,6.07
2018-09-29T11:13:49.306Z,5.67
2018-09-29T11:18:52.855Z,8.50
2018-09-29T11:23:56.520Z,9.20
2018-09-29T11:29:00.133Z,12.17
2018-09-29T11:34:03.756Z,11.63
2018-09-29T11:39:10.194Z,7.60
2018-09-29T11:44:13.781Z,6.80
2018-09-29T11:49:17.404Z,4.97
2018-09-29T11:54:20.947Z,6.33
2018-09-29T11:59:24.542Z,3.20
2018-09-29T12:04:28.144Z,4.67
2018-09-29T12:09:31.803Z,7.40
2018-09-29T12:14:46.636Z,5.10
2018-09-29T12:19:50.367Z,5.97
2018-09-29T12:24:54.009Z,2.37
2018-09-29T12:29:57.683Z,5.20
2018-09-29T12:35:01.350Z,7.83
2018-09-29T12:40:04.974Z,7.23
2018-09-29T12:45:08.596Z,3.23
2018-09-29T12:50:22.220Z,8.80
2018-09-29T12:55:25.862Z,7.57
2018-09-29T13:00:30.714Z,5.00
2018-09-29T13:05:34.293Z,6.00
2018-09-29T13:10:37.841Z,6.57
2018-09-29T13:15:41.442Z,3.57
2018-09-29T13:20:45.035Z,4.20
2018-09-29T13:25:48.641Z,6.73
2018-09-29T13:30:52.301Z,6.47
2018-09-29T13:35:55.902Z,5.17
2018-09-29T13:40:59.511Z,5.80
2018-09-29T13:46:03.141Z,3.17
2018-09-29T13:51:06.707Z,9.93
2018-09-29T13:56:10.286Z,6.60
2018-09-29T14:01:14.127Z,6.90
2018-09-29T14:06:17.667Z,4.03
2018-09-29T14:11:21.287Z,3.90
2018-09-29T14:16:24.984Z,5.73
2018-09-29T14:21:28.478Z,3.87
2018-09-29T14:26:32.219Z,4.33
2018-09-29T14:31:35.907Z,3.70
2018-09-29T14:36:39.453Z,4.53
2018-09-29T14:41:43.134Z,7.77
2018-09-29T14:46:46.934Z,4.23
2018-09-29T14:51:50.643Z,4.93
2018-09-29T14:56:54.308Z,7.90
2018-09-29T15:01:57.835Z,5.10
2018-09-29T15:07:01.465Z,3.23
2018-09-29T15:12:04.973Z,3.00
2018-09-29T15:17:08.576Z,5.53
2018-09-29T15:22:12.252Z,4.47
2018-09-29T15:27:15.932Z,3.40
2018-09-29T15:32:19.658Z,4.07
2018-09-29T15:37:23.319Z,5.00
2018-09-29T15:42:27.038Z,5.03
2018-09-29T15:47:30.552Z,4.40
2018-09-29T15:52:34.145Z,6.13
2018-09-29T15:57:37.746Z,6.23
2018-09-29T16:02:41.241Z,3.27
2018-09-29T16:07:44.891Z,8.63
2018-09-29T16:12:48.578Z,5.93
2018-09-29T16:17:52.239Z,4.47
2018-09-29T16:22:56.019Z,12.17
2018-09-29T16:27:59.671Z,6.70
2018-09-29T16:33:03.189Z,8.20
2018-09-29T16:38:06.836Z,5.00
2018-09-29T16:43:10.429Z,12.43
2018-09-29T16:48:13.987Z,4.53
2018-09-29T16:53:17.536Z,6.47
2018-09-29T16:58:21.315Z,4.87
2018-09-29T17:03:24.907Z,3.97
2018-09-29T17:08:28.540Z,5.77
2018-09-29T17:13:32.077Z,6.97
2018-09-29T17:18:35.701Z,8.50
2018-09-29T17:23:39.259Z,8.23
2018-09-29T17:28:43.061Z,3.27
2018-09-29T17:33:46.686Z,8.30
2018-09-29T17:38:50.353Z,6.93
2018-09-29T17:43:54.090Z,5.20
2018-09-29T17:48:57.842Z,3.23
2018-09-29T17:54:02.008Z,5.00
2018-09-29T17:59:07.120Z,6.77
2018-09-29T18:04:11.705Z,6.70
2018-09-29T18:09:15.988Z,6.53
2018-09-29T18:14:24.406Z,7.43
2018-09-29T18:19:28.381Z,9.33
2018-09-29T18:24:32.170Z,8.10
2018-09-29T18:29:36.142Z,11.83
2018-09-29T18:34:40.884Z,7.53
2018-09-29T18:39:45.124Z,13.17
2018-09-29T18:44:48.773Z,13.30
2018-09-29T18:49:54.213Z,13.23
2018-09-29T18:54:58.113Z,13.07
2018-09-29T19:00:01.958Z,11.57
2018-09-29T19:05:06.352Z,13.43
2018-09-29T19:10:11.078Z,9.90
2018-09-29T19:15:14.963Z,18.97
2018-09-29T19:20:30.247Z,18.87
2018-09-29T19:25:34.218Z,14.43
2018-09-29T19:30:37.846Z,16.00
2018-09-29T19:35:42.388Z,16.23
2018-09-29T19:40:46.060Z,16.73
2018-09-29T19:45:50.028Z,24.83
2018-09-29T19:50:53.602Z,19.60
2018-09-29T19:55:57.672Z,28.63
2018-09-29T20:01:01.388Z,31.50
2018-09-29T20:06:06.073Z,33.30
2018-09-29T20:11:10.130Z,32.93
2018-09-29T20:16:13.731Z,30.30
2018-09-29T20:21:17.440Z,26.87
2018-09-29T20:26:21.130Z,22.97
2018-09-29T20:31:24.878Z,23.97
2018-09-29T20:36:28.493Z,21.37
2018-09-29T20:41:32.291Z,18.37
2018-09-29T20:46:36.404Z,21.50
2018-09-29T20:51:40.148Z,14.27
2018-09-29T20:56:43.786Z,16.83
2018-09-29T21:01:47.362Z,13.73
2018-09-29T21:06:50.937Z,11.40
2018-09-29T21:11:54.535Z,16.20
2018-09-29T21:16:58.165Z,16.10
2018-09-29T21:22:01.786Z,13.00
2018-09-29T21:27:05.375Z,11.33
2018-09-29T21:32:09.007Z,13.10
2018-09-29T21:37:12.586Z,11.37
2018-09-29T21:42:16.241Z,9.13
2018-09-29T21:47:20.218Z,12.27
2018-09-29T21:52:23.881Z,12.50
2018-09-29T21:57:27.556Z,9.00
2018-09-29T22:02:31.134Z,10.37
2018-09-29T22:07:34.750Z,8.73
2018-09-29T22:12:38.437Z,14.03
2018-09-29T22:17:42.062Z,9.93
2018-09-29T22:22:45.622Z,10.43
2018-09-29T22:27:49.178Z,7.50
2018-09-29T22:32:52.760Z,9.10
2018-09-29T22:37:56.405Z,8.03
2018-09-29T22:43:00.072Z,9.17
2018-09-29T22:48:03.669Z,7.33
2018-09-29T22:53:07.490Z,11.80
2018-09-29T22:58:11.135Z,10.70
2018-09-29T23:03:14.702Z,9.47
2018-09-29T23:08:18.290Z,9.80
2018-09-29T23:13:21.940Z,12.53
2018-09-29T23:18:25.599Z,15.87
2018-09-29T23:23:29.226Z,9.30
2018-09-29T23:28:32.858Z,10.47
2018-09-29T23:33:36.471Z,12.37
2018-09-29T23:38:39.980Z,12.37
2018-09-29T23:43:43.509Z,15.63
2018-09-29T23:48:47.071Z,14.57
2018-09-29T23:53:50.731Z,12.23
2018-09-29T23:58:54.363Z,11.93
